sensor_id;sensor_type;location;lat;lon;timestamp;P1;durP1;ratioP1;P2;durP2;ratioP2
12972;SDS011;6551;51.056;9.466;2022-09-16T00:00:23;5.87;;;1.60;;
12972;SDS011;6551;51.056;9.466;2022-09-16T00:02:52;6.20;;;1.90;;
12972;SDS011;6551;51.056;9.466;2022-09-16T00:05:19;4.60;;;1.53;;
12972;SDS011;6551;51.056;9.466;2022-09-16T00:07:45;4.40;;;1.40;;
12972;SDS011;6551;51.056;9.466;2022-09-16T00:10:10;3.03;;;1.67;;
12972;SDS011;6551;51.056;9.466;2022-09-16T00:12:37;5.17;;;1.90;;
12972;SDS011;6551;51.056;9.466;2022-09-16T00:15:03;6.27;;;1.67;;
12972;SDS011;6551;51.056;9.466;2022-09-16T00:17:30;3.10;;;1.40;;
12972;SDS011;6551;51.056;9.466;2022-09-16T00:19:56;3.57;;;1.57;;
12972;SDS011;6551;51.056;9.466;2022-09-16T00:22:22;4.03;;;1.60;;
12972;SDS011;6551;51.056;9.466;2022-09-16T00:24:49;5.10;;;1.53;;
12972;SDS011;6551;51.056;9.466;2022-09-16T00:27:15;6.33;;;1.63;;
12972;SDS011;6551;51.056;9.466;2022-09-16T00:29:41;4.47;;;1.67;;
12972;SDS011;6551;51.056;9.466;2022-09-16T00:32:06;4.00;;;1.87;;
12972;SDS011;6551;51.056;9.466;2022-09-16T00:34:32;2.30;;;1.20;;
12972;SDS011;6551;51.056;9.466;2022-09-16T00:36:58;3.73;;;1.83;;
12972;SDS011;6551;51.056;9.466;2022-09-16T00:39:23;3.60;;;1.50;;
12972;SDS011;6551;51.056;9.466;2022-09-16T00:41:49;4.00;;;1.47;;
12972;SDS011;6551;51.056;9.466;2022-09-16T00:47:25;3.20;;;1.50;;
12972;SDS011;6551;51.056;9.466;2022-09-16T00:50:01;5.83;;;1.70;;
12972;SDS011;6551;51.056;9.466;2022-09-16T00:52:54;2.53;;;1.27;;
12972;SDS011;6551;51.056;9.466;2022-09-16T00:55:22;5.03;;;1.50;;
12972;SDS011;6551;51.056;9.466;2022-09-16T00:57:53;4.43;;;1.50;;
12972;SDS011;6551;51.056;9.466;2022-09-16T01:00:24;3.30;;;1.57;;
12972;SDS011;6551;51.056;9.466;2022-09-16T01:02:50;3.40;;;1.30;;
12972;SDS011;6551;51.056;9.466;2022-09-16T01:05:16;3.80;;;1.43;;
12972;SDS011;6551;51.056;9.466;2022-09-16T01:07:49;5.20;;;1.87;;
12972;SDS011;6551;51.056;9.466;2022-09-16T01:10:21;3.70;;;1.53;;
12972;SDS011;6551;51.056;9.466;2022-09-16T01:12:50;4.37;;;1.50;;
12972;SDS011;6551;51.056;9.466;2022-09-16T01:15:21;3.53;;;1.43;;
12972;SDS011;6551;51.056;9.466;2022-09-16T01:17:59;4.73;;;1.40;;
12972;SDS011;6551;51.056;9.466;2022-09-16T01:20:52;2.23;;;1.37;;
12972;SDS011;6551;51.056;9.466;2022-09-16T01:23:45;3.47;;;1.43;;
12972;SDS011;6551;51.056;9.466;2022-09-16T01:26:53;4.43;;;1.70;;
12972;SDS011;6551;51.056;9.466;2022-09-16T01:45:29;3.57;;;2.30;;
12972;SDS011;6551;51.056;9.466;2022-09-16T01:51:01;4.77;;;2.33;;
12972;SDS011;6551;51.056;9.466;2022-09-16T01:53:50;5.67;;;2.60;;
12972;SDS011;6551;51.056;9.466;2022-09-16T01:59:19;3.60;;;2.40;;
12972;SDS011;6551;51.056;9.466;2022-09-16T02:02:05;6.03;;;2.47;;
12972;SDS011;6551;51.056;9.466;2022-09-16T02:04:57;7.53;;;2.80;;
12972;SDS011;6551;51.056;9.466;2022-09-16T02:07:28;5.57;;;2.60;;
12972;SDS011;6551;51.056;9.466;2022-09-16T02:10:03;6.93;;;3.43;;
12972;SDS011;6551;51.056;9.466;2022-09-16T02:12:40;6.20;;;3.00;;
12972;SDS011;6551;51.056;9.466;2022-09-16T02:15:09;8.20;;;3.27;;
12972;SDS011;6551;51.056;9.466;2022-09-16T02:17:44;5.57;;;3.43;;
12972;SDS011;6551;51.056;9.466;2022-09-16T02:20:20;5.40;;;3.20;;
12972;SDS011;6551;51.056;9.466;2022-09-16T02:22:53;6.13;;;3.37;;
12972;SDS011;6551;51.056;9.466;2022-09-16T02:25:38;4.60;;;3.63;;
12972;SDS011;6551;51.056;9.466;2022-09-16T02:28:07;5.77;;;3.10;;
12972;SDS011;6551;51.056;9.466;2022-09-16T02:30:42;7.47;;;4.40;;
12972;SDS011;6551;51.056;9.466;2022-09-16T02:33:13;6.30;;;3.80;;
12972;SDS011;6551;51.056;9.466;2022-09-16T02:35:41;6.63;;;3.40;;
12972;SDS011;6551;51.056;9.466;2022-09-16T02:38:25;5.37;;;3.50;;
12972;SDS011;6551;51.056;9.466;2022-09-16T02:41:04;7.37;;;3.73;;
12972;SDS011;6551;51.056;9.466;2022-09-16T02:43:30;5.40;;;3.77;;
12972;SDS011;6551;51.056;9.466;2022-09-16T02:57:54;4.33;;;3.10;;
12972;SDS011;6551;51.056;9.466;2022-09-16T03:00:20;4.90;;;3.30;;
12972;SDS011;6551;51.056;9.466;2022-09-16T03:02:46;3.73;;;2.90;;
12972;SDS011;6551;51.056;9.466;2022-09-16T03:05:12;6.37;;;3.70;;
12972;SDS011;6551;51.056;9.466;2022-09-16T03:07:38;6.70;;;3.63;;
12972;SDS011;6551;51.056;9.466;2022-09-16T03:10:07;5.70;;;3.43;;
12972;SDS011;6551;51.056;9.466;2022-09-16T03:12:39;6.63;;;2.97;;
12972;SDS011;6551;51.056;9.466;2022-09-16T03:26:29;4.27;;;2.80;;
12972;SDS011;6551;51.056;9.466;2022-09-16T03:34:56;9.13;;;2.93;;
12972;SDS011;6551;51.056;9.466;2022-09-16T03:37:30;5.93;;;3.30;;
12972;SDS011;6551;51.056;9.466;2022-09-16T03:40:00;6.97;;;3.50;;
12972;SDS011;6551;51.056;9.466;2022-09-16T03:42:33;4.53;;;3.03;;
12972;SDS011;6551;51.056;9.466;2022-09-16T03:44:59;7.53;;;3.50;;
12972;SDS011;6551;51.056;9.466;2022-09-16T03:47:25;8.87;;;3.30;;
12972;SDS011;6551;51.056;9.466;2022-09-16T03:49:50;4.20;;;3.13;;
12972;SDS011;6551;51.056;9.466;2022-09-16T03:52:16;4.90;;;3.37;;
12972;SDS011;6551;51.056;9.466;2022-09-16T03:54:43;6.10;;;3.43;;
12972;SDS011;6551;51.056;9.466;2022-09-16T03:57:09;5.70;;;3.53;;
12972;SDS011;6551;51.056;9.466;2022-09-16T03:59:35;6.83;;;3.00;;
12972;SDS011;6551;51.056;9.466;2022-09-16T04:02:00;5.77;;;3.30;;
12972;SDS011;6551;51.056;9.466;2022-09-16T04:04:26;4.20;;;2.80;;
12972;SDS011;6551;51.056;9.466;2022-09-16T04:06:52;4.43;;;3.10;;
12972;SDS011;6551;51.056;9.466;2022-09-16T04:09:17;5.17;;;3.50;;
12972;SDS011;6551;51.056;9.466;2022-09-16T04:11:43;4.70;;;2.97;;
12972;SDS011;6551;51.056;9.466;2022-09-16T04:14:09;5.27;;;3.80;;
12972;SDS011;6551;51.056;9.466;2022-09-16T04:16:35;6.40;;;3.80;;
12972;SDS011;6551;51.056;9.466;2022-09-16T04:19:01;5.87;;;3.43;;
12972;SDS011;6551;51.056;9.466;2022-09-16T04:21:26;5.70;;;3.30;;
12972;SDS011;6551;51.056;9.466;2022-09-16T04:23:53;7.30;;;3.30;;
12972;SDS011;6551;51.056;9.466;2022-09-16T04:26:19;5.90;;;3.50;;
12972;SDS011;6551;51.056;9.466;2022-09-16T04:28:45;6.40;;;4.00;;
12972;SDS011;6551;51.056;9.466;2022-09-16T04:31:12;9.47;;;4.27;;
12972;SDS011;6551;51.056;9.466;2022-09-16T04:33:39;6.50;;;3.37;;
12972;SDS011;6551;51.056;9.466;2022-09-16T04:36:07;5.70;;;3.70;;
12972;SDS011;6551;51.056;9.466;2022-09-16T04:38:39;5.57;;;4.07;;
12972;SDS011;6551;51.056;9.466;2022-09-16T04:41:09;7.23;;;3.70;;
12972;SDS011;6551;51.056;9.466;2022-09-16T04:43:44;5.83;;;3.63;;
12972;SDS011;6551;51.056;9.466;2022-09-16T04:46:11;7.20;;;3.80;;
12972;SDS011;6551;51.056;9.466;2022-09-16T04:48:37;4.90;;;3.60;;
12972;SDS011;6551;51.056;9.466;2022-09-16T04:51:07;7.80;;;3.70;;
12972;SDS011;6551;51.056;9.466;2022-09-16T04:53:36;5.57;;;3.63;;
12972;SDS011;6551;51.056;9.466;2022-09-16T04:56:05;6.63;;;3.63;;
12972;SDS011;6551;51.056;9.466;2022-09-16T04:58:33;8.23;;;3.90;;
12972;SDS011;6551;51.056;9.466;2022-09-16T05:01:06;6.03;;;4.07;;
12972;SDS011;6551;51.056;9.466;2022-09-16T05:03:58;7.63;;;3.80;;
12972;SDS011;6551;51.056;9.466;2022-09-16T05:06:27;5.33;;;4.20;;
12972;SDS011;6551;51.056;9.466;2022-09-16T05:08:56;6.73;;;3.83;;
12972;SDS011;6551;51.056;9.466;2022-09-16T05:11:25;6.77;;;4.43;;
12972;SDS011;6551;51.056;9.466;2022-09-16T05:13:57;6.73;;;3.90;;
12972;SDS011;6551;51.056;9.466;2022-09-16T05:16:24;6.77;;;3.67;;
12972;SDS011;6551;51.056;9.466;2022-09-16T05:18:52;7.37;;;3.70;;
12972;SDS011;6551;51.056;9.466;2022-09-16T05:21:20;5.80;;;3.63;;
12972;SDS011;6551;51.056;9.466;2022-09-16T05:23:49;5.63;;;3.80;;
12972;SDS011;6551;51.056;9.466;2022-09-16T05:28:44;6.37;;;3.30;;
12972;SDS011;6551;51.056;9.466;2022-09-16T05:31:11;4.50;;;3.40;;
12972;SDS011;6551;51.056;9.466;2022-09-16T05:33:58;4.70;;;3.00;;
12972;SDS011;6551;51.056;9.466;2022-09-16T05:36:29;4.83;;;3.27;;
12972;SDS011;6551;51.056;9.466;2022-09-16T05:38:57;7.17;;;3.27;;
12972;SDS011;6551;51.056;9.466;2022-09-16T05:41:23;5.07;;;3.30;;
12972;SDS011;6551;51.056;9.466;2022-09-16T05:43:49;4.30;;;3.40;;
12972;SDS011;6551;51.056;9.466;2022-09-16T05:46:19;5.90;;;3.07;;
12972;SDS011;6551;51.056;9.466;2022-09-16T05:48:47;8.80;;;3.37;;
12972;SDS011;6551;51.056;9.466;2022-09-16T05:51:17;7.80;;;2.33;;
12972;SDS011;6551;51.056;9.466;2022-09-16T05:53:45;5.13;;;3.13;;
12972;SDS011;6551;51.056;9.466;2022-09-16T05:56:14;4.47;;;3.00;;
12972;SDS011;6551;51.056;9.466;2022-09-16T05:58:45;5.37;;;2.57;;
12972;SDS011;6551;51.056;9.466;2022-09-16T06:01:15;4.43;;;2.77;;
12972;SDS011;6551;51.056;9.466;2022-09-16T06:03:43;7.33;;;2.67;;
12972;SDS011;6551;51.056;9.466;2022-09-16T06:06:12;4.47;;;3.37;;
12972;SDS011;6551;51.056;9.466;2022-09-16T06:08:46;3.90;;;2.87;;
12972;SDS011;6551;51.056;9.466;2022-09-16T06:11:13;9.50;;;2.90;;
12972;SDS011;6551;51.056;9.466;2022-09-16T06:13:38;4.90;;;2.90;;
12972;SDS011;6551;51.056;9.466;2022-09-16T06:16:05;4.80;;;2.80;;
12972;SDS011;6551;51.056;9.466;2022-09-16T06:18:33;9.63;;;3.17;;
12972;SDS011;6551;51.056;9.466;2022-09-16T06:21:04;6.40;;;3.27;;
12972;SDS011;6551;51.056;9.466;2022-09-16T06:23:35;3.90;;;3.37;;
12972;SDS011;6551;51.056;9.466;2022-09-16T06:26:06;4.77;;;3.20;;
12972;SDS011;6551;51.056;9.466;2022-09-16T06:28:37;5.97;;;3.57;;
12972;SDS011;6551;51.056;9.466;2022-09-16T06:31:18;6.70;;;3.40;;
12972;SDS011;6551;51.056;9.466;2022-09-16T06:33:48;5.73;;;3.57;;
12972;SDS011;6551;51.056;9.466;2022-09-16T06:36:15;5.90;;;4.33;;
12972;SDS011;6551;51.056;9.466;2022-09-16T06:38:44;5.43;;;3.93;;
12972;SDS011;6551;51.056;9.466;2022-09-16T06:41:11;6.90;;;3.73;;
12972;SDS011;6551;51.056;9.466;2022-09-16T06:43:39;6.53;;;4.27;;
12972;SDS011;6551;51.056;9.466;2022-09-16T06:46:09;5.90;;;3.83;;
12972;SDS011;6551;51.056;9.466;2022-09-16T06:48:39;8.60;;;3.87;;
12972;SDS011;6551;51.056;9.466;2022-09-16T06:51:11;8.03;;;4.17;;
12972;SDS011;6551;51.056;9.466;2022-09-16T06:53:40;3.80;;;2.93;;
12972;SDS011;6551;51.056;9.466;2022-09-16T06:56:07;5.17;;;3.00;;
12972;SDS011;6551;51.056;9.466;2022-09-16T06:58:36;6.17;;;2.77;;
12972;SDS011;6551;51.056;9.466;2022-09-16T07:01:05;5.20;;;3.10;;
12972;SDS011;6551;51.056;9.466;2022-09-16T07:03:35;5.50;;;2.67;;
12972;SDS011;6551;51.056;9.466;2022-09-16T07:06:06;4.23;;;2.90;;
12972;SDS011;6551;51.056;9.466;2022-09-16T07:08:33;4.13;;;2.33;;
12972;SDS011;6551;51.056;9.466;2022-09-16T07:11:02;5.30;;;2.67;;
12972;SDS011;6551;51.056;9.466;2022-09-16T07:13:29;4.83;;;2.70;;
12972;SDS011;6551;51.056;9.466;2022-09-16T07:16:02;5.83;;;2.73;;
12972;SDS011;6551;51.056;9.466;2022-09-16T07:18:33;4.83;;;2.70;;
12972;SDS011;6551;51.056;9.466;2022-09-16T07:21:02;5.20;;;2.37;;
12972;SDS011;6551;51.056;9.466;2022-09-16T07:23:33;4.87;;;2.30;;
12972;SDS011;6551;51.056;9.466;2022-09-16T07:26:02;3.67;;;2.20;;
12972;SDS011;6551;51.056;9.466;2022-09-16T07:28:39;4.23;;;2.43;;
12972;SDS011;6551;51.056;9.466;2022-09-16T07:31:07;4.33;;;2.33;;
12972;SDS011;6551;51.056;9.466;2022-09-16T07:33:36;3.90;;;2.20;;
12972;SDS011;6551;51.056;9.466;2022-09-16T07:36:04;5.37;;;2.10;;
12972;SDS011;6551;51.056;9.466;2022-09-16T07:38:32;9.43;;;2.83;;
12972;SDS011;6551;51.056;9.466;2022-09-16T07:41:14;4.73;;;2.13;;
12972;SDS011;6551;51.056;9.466;2022-09-16T07:43:46;5.53;;;2.50;;
12972;SDS011;6551;51.056;9.466;2022-09-16T07:46:13;7.13;;;2.10;;
12972;SDS011;6551;51.056;9.466;2022-09-16T07:48:41;4.53;;;1.90;;
12972;SDS011;6551;51.056;9.466;2022-09-16T07:51:10;5.10;;;1.80;;
12972;SDS011;6551;51.056;9.466;2022-09-16T07:53:40;4.47;;;2.03;;
12972;SDS011;6551;51.056;9.466;2022-09-16T07:56:16;3.47;;;1.87;;
12972;SDS011;6551;51.056;9.466;2022-09-16T07:58:45;4.80;;;1.90;;
12972;SDS011;6551;51.056;9.466;2022-09-16T08:01:12;5.37;;;1.73;;
12972;SDS011;6551;51.056;9.466;2022-09-16T08:03:40;4.87;;;1.50;;
12972;SDS011;6551;51.056;9.466;2022-09-16T08:06:18;2.90;;;1.30;;
12972;SDS011;6551;51.056;9.466;2022-09-16T08:08:47;2.67;;;1.47;;
12972;SDS011;6551;51.056;9.466;2022-09-16T08:11:16;3.87;;;1.60;;
12972;SDS011;6551;51.056;9.466;2022-09-16T08:13:42;3.33;;;1.40;;
12972;SDS011;6551;51.056;9.466;2022-09-16T08:16:11;3.63;;;1.50;;
12972;SDS011;6551;51.056;9.466;2022-09-16T08:18:43;5.63;;;1.70;;
12972;SDS011;6551;51.056;9.466;2022-09-16T08:21:12;2.73;;;1.20;;
12972;SDS011;6551;51.056;9.466;2022-09-16T08:23:44;4.27;;;1.63;;
12972;SDS011;6551;51.056;9.466;2022-09-16T08:26:11;2.17;;;1.50;;
12972;SDS011;6551;51.056;9.466;2022-09-16T08:28:38;3.27;;;1.30;;
12972;SDS011;6551;51.056;9.466;2022-09-16T08:31:06;3.80;;;1.37;;
12972;SDS011;6551;51.056;9.466;2022-09-16T08:33:32;3.50;;;1.30;;
12972;SDS011;6551;51.056;9.466;2022-09-16T08:36:02;2.47;;;1.20;;
12972;SDS011;6551;51.056;9.466;2022-09-16T08:38:44;1.30;;;1.00;;
12972;SDS011;6551;51.056;9.466;2022-09-16T08:47:41;2.87;;;1.40;;
12972;SDS011;6551;51.056;9.466;2022-09-16T08:50:25;4.03;;;1.40;;
12972;SDS011;6551;51.056;9.466;2022-09-16T08:52:59;4.00;;;1.60;;
12972;SDS011;6551;51.056;9.466;2022-09-16T08:55:31;4.10;;;1.53;;
12972;SDS011;6551;51.056;9.466;2022-09-16T08:58:10;2.33;;;1.37;;
12972;SDS011;6551;51.056;9.466;2022-09-16T09:00:52;1.90;;;1.10;;
12972;SDS011;6551;51.056;9.466;2022-09-16T09:06:00;6.03;;;2.53;;
12972;SDS011;6551;51.056;9.466;2022-09-16T09:17:21;4.57;;;2.73;;
12972;SDS011;6551;51.056;9.466;2022-09-16T09:20:13;6.90;;;2.60;;
12972;SDS011;6551;51.056;9.466;2022-09-16T09:25:49;3.87;;;2.67;;
12972;SDS011;6551;51.056;9.466;2022-09-16T09:41:00;3.30;;;2.07;;
12972;SDS011;6551;51.056;9.466;2022-09-16T09:43:44;9.07;;;2.83;;
12972;SDS011;6551;51.056;9.466;2022-09-16T09:46:19;9.80;;;4.03;;
12972;SDS011;6551;51.056;9.466;2022-09-16T09:48:57;4.57;;;2.80;;
12972;SDS011;6551;51.056;9.466;2022-09-16T09:51:38;5.03;;;2.53;;
12972;SDS011;6551;51.056;9.466;2022-09-16T09:56:52;7.20;;;2.70;;
12972;SDS011;6551;51.056;9.466;2022-09-16T10:02:42;4.17;;;2.00;;
12972;SDS011;6551;51.056;9.466;2022-09-16T10:05:14;4.27;;;2.30;;
12972;SDS011;6551;51.056;9.466;2022-09-16T10:08:01;5.10;;;2.37;;
12972;SDS011;6551;51.056;9.466;2022-09-16T10:10:39;5.13;;;1.80;;
12972;SDS011;6551;51.056;9.466;2022-09-16T10:13:26;2.93;;;1.60;;
12972;SDS011;6551;51.056;9.466;2022-09-16T10:16:11;3.73;;;1.27;;
12972;SDS011;6551;51.056;9.466;2022-09-16T10:18:42;2.73;;;1.07;;
12972;SDS011;6551;51.056;9.466;2022-09-16T10:21:09;1.70;;;0.83;;
12972;SDS011;6551;51.056;9.466;2022-09-16T10:23:38;1.30;;;0.80;;
12972;SDS011;6551;51.056;9.466;2022-09-16T10:28:59;3.17;;;1.07;;
12972;SDS011;6551;51.056;9.466;2022-09-16T10:31:29;3.20;;;2.33;;
12972;SDS011;6551;51.056;9.466;2022-09-16T10:34:03;3.43;;;1.87;;
12972;SDS011;6551;51.056;9.466;2022-09-16T10:36:45;3.63;;;1.43;;
12972;SDS011;6551;51.056;9.466;2022-09-16T10:39:22;3.93;;;2.00;;
12972;SDS011;6551;51.056;9.466;2022-09-16T10:41:50;4.77;;;1.83;;
12972;SDS011;6551;51.056;9.466;2022-09-16T10:44:17;2.47;;;1.10;;
12972;SDS011;6551;51.056;9.466;2022-09-16T10:47:01;4.20;;;1.80;;
12972;SDS011;6551;51.056;9.466;2022-09-16T10:52:23;8.97;;;2.10;;
12972;SDS011;6551;51.056;9.466;2022-09-16T10:54:52;5.70;;;2.17;;
12972;SDS011;6551;51.056;9.466;2022-09-16T10:57:31;4.07;;;1.73;;
12972;SDS011;6551;51.056;9.466;2022-09-16T11:03:03;2.40;;;1.27;;
12972;SDS011;6551;51.056;9.466;2022-09-16T11:06:10;3.43;;;1.67;;
12972;SDS011;6551;51.056;9.466;2022-09-16T11:09:04;2.27;;;1.20;;
12972;SDS011;6551;51.056;9.466;2022-09-16T11:14:50;2.20;;;1.20;;
12972;SDS011;6551;51.056;9.466;2022-09-16T11:17:33;2.97;;;1.20;;
12972;SDS011;6551;51.056;9.466;2022-09-16T11:31:32;3.17;;;1.27;;
12972;SDS011;6551;51.056;9.466;2022-09-16T11:35:06;1.83;;;1.20;;
12972;SDS011;6551;51.056;9.466;2022-09-16T11:40:59;1.80;;;0.87;;
12972;SDS011;6551;51.056;9.466;2022-09-16T11:49:45;1.80;;;0.90;;
12972;SDS011;6551;51.056;9.466;2022-09-16T11:58:37;2.57;;;0.90;;
12972;SDS011;6551;51.056;9.466;2022-09-16T12:06:29;3.17;;;1.23;;
12972;SDS011;6551;51.056;9.466;2022-09-16T12:09:16;2.77;;;0.80;;
12972;SDS011;6551;51.056;9.466;2022-09-16T12:11:52;1.20;;;0.53;;
12972;SDS011;6551;51.056;9.466;2022-09-16T12:14:28;1.30;;;0.60;;
12972;SDS011;6551;51.056;9.466;2022-09-16T12:17:14;3.73;;;1.50;;
12972;SDS011;6551;51.056;9.466;2022-09-16T12:19:59;1.37;;;0.90;;
12972;SDS011;6551;51.056;9.466;2022-09-16T12:22:54;1.63;;;1.03;;
12972;SDS011;6551;51.056;9.466;2022-09-16T12:31:17;2.17;;;0.93;;
12972;SDS011;6551;51.056;9.466;2022-09-16T12:34:11;2.10;;;1.30;;
12972;SDS011;6551;51.056;9.466;2022-09-16T12:36:48;1.67;;;0.90;;
12972;SDS011;6551;51.056;9.466;2022-09-16T12:39:24;3.73;;;0.90;;
12972;SDS011;6551;51.056;9.466;2022-09-16T12:41:55;2.20;;;1.10;;
12972;SDS011;6551;51.056;9.466;2022-09-16T12:44:44;3.17;;;0.70;;
12972;SDS011;6551;51.056;9.466;2022-09-16T12:50:59;2.37;;;0.80;;
12972;SDS011;6551;51.056;9.466;2022-09-16T12:53:54;5.23;;;1.00;;
12972;SDS011;6551;51.056;9.466;2022-09-16T13:02:23;2.27;;;0.70;;
12972;SDS011;6551;51.056;9.466;2022-09-16T13:05:34;3.50;;;1.00;;
12972;SDS011;6551;51.056;9.466;2022-09-16T13:08:22;1.97;;;0.97;;
12972;SDS011;6551;51.056;9.466;2022-09-16T13:11:05;1.57;;;0.90;;
12972;SDS011;6551;51.056;9.466;2022-09-16T13:13:42;3.80;;;1.00;;
12972;SDS011;6551;51.056;9.466;2022-09-16T13:16:13;3.73;;;0.90;;
12972;SDS011;6551;51.056;9.466;2022-09-16T13:18:50;1.87;;;0.73;;
12972;SDS011;6551;51.056;9.466;2022-09-16T13:21:30;3.40;;;0.87;;
12972;SDS011;6551;51.056;9.466;2022-09-16T13:24:24;4.50;;;0.80;;
12972;SDS011;6551;51.056;9.466;2022-09-16T13:27:15;2.43;;;0.90;;
12972;SDS011;6551;51.056;9.466;2022-09-16T13:29:50;2.93;;;0.60;;
12972;SDS011;6551;51.056;9.466;2022-09-16T13:32:36;2.73;;;0.97;;
12972;SDS011;6551;51.056;9.466;2022-09-16T13:37:46;2.93;;;0.87;;
12972;SDS011;6551;51.056;9.466;2022-09-16T13:40:18;6.53;;;1.07;;
12972;SDS011;6551;51.056;9.466;2022-09-16T13:42:51;3.70;;;0.80;;
12972;SDS011;6551;51.056;9.466;2022-09-16T13:45:37;1.90;;;1.10;;
12972;SDS011;6551;51.056;9.466;2022-09-16T13:48:16;0.70;;;0.47;;
12972;SDS011;6551;51.056;9.466;2022-09-16T13:50:48;1.77;;;0.87;;
12972;SDS011;6551;51.056;9.466;2022-09-16T13:53:31;0.80;;;0.50;;
12972;SDS011;6551;51.056;9.466;2022-09-16T13:56:08;1.83;;;0.80;;
12972;SDS011;6551;51.056;9.466;2022-09-16T13:59:10;2.00;;;0.50;;
12972;SDS011;6551;51.056;9.466;2022-09-16T14:02:13;2.00;;;0.97;;
12972;SDS011;6551;51.056;9.466;2022-09-16T14:07:41;1.53;;;1.10;;
12972;SDS011;6551;51.056;9.466;2022-09-16T14:10:22;2.60;;;0.90;;
12972;SDS011;6551;51.056;9.466;2022-09-16T14:13:13;2.17;;;0.73;;
12972;SDS011;6551;51.056;9.466;2022-09-16T14:15:46;1.27;;;0.50;;
12972;SDS011;6551;51.056;9.466;2022-09-16T14:18:19;1.73;;;0.70;;
12972;SDS011;6551;51.056;9.466;2022-09-16T14:23:28;0.77;;;0.50;;
12972;SDS011;6551;51.056;9.466;2022-09-16T14:25:56;1.77;;;0.57;;
12972;SDS011;6551;51.056;9.466;2022-09-16T14:28:34;2.20;;;0.80;;
12972;SDS011;6551;51.056;9.466;2022-09-16T14:31:00;1.30;;;0.77;;
12972;SDS011;6551;51.056;9.466;2022-09-16T14:33:34;3.80;;;0.50;;
12972;SDS011;6551;51.056;9.466;2022-09-16T14:36:11;0.50;;;0.40;;
12972;SDS011;6551;51.056;9.466;2022-09-16T14:41:35;0.60;;;0.40;;
12972;SDS011;6551;51.056;9.466;2022-09-16T14:46:45;2.80;;;0.77;;
12972;SDS011;6551;51.056;9.466;2022-09-16T14:49:22;2.90;;;0.70;;
12972;SDS011;6551;51.056;9.466;2022-09-16T14:51:55;3.00;;;0.67;;
12972;SDS011;6551;51.056;9.466;2022-09-16T14:54:26;1.83;;;0.50;;
12972;SDS011;6551;51.056;9.466;2022-09-16T14:57:00;1.60;;;0.50;;
12972;SDS011;6551;51.056;9.466;2022-09-16T14:59:32;2.20;;;0.67;;
12972;SDS011;6551;51.056;9.466;2022-09-16T15:02:06;2.30;;;0.60;;
12972;SDS011;6551;51.056;9.466;2022-09-16T15:04:45;2.37;;;0.50;;
12972;SDS011;6551;51.056;9.466;2022-09-16T15:07:20;1.73;;;0.60;;
12972;SDS011;6551;51.056;9.466;2022-09-16T15:09:53;1.60;;;0.60;;
12972;SDS011;6551;51.056;9.466;2022-09-16T15:12:29;1.50;;;0.40;;
12972;SDS011;6551;51.056;9.466;2022-09-16T15:15:13;3.50;;;0.73;;
12972;SDS011;6551;51.056;9.466;2022-09-16T15:17:56;1.87;;;0.53;;
12972;SDS011;6551;51.056;9.466;2022-09-16T15:20:23;4.00;;;0.60;;
12972;SDS011;6551;51.056;9.466;2022-09-16T15:22:52;3.40;;;0.50;;
12972;SDS011;6551;51.056;9.466;2022-09-16T15:25:23;3.50;;;0.60;;
12972;SDS011;6551;51.056;9.466;2022-09-16T15:28:02;0.93;;;0.37;;
12972;SDS011;6551;51.056;9.466;2022-09-16T15:30:46;1.33;;;0.50;;
12972;SDS011;6551;51.056;9.466;2022-09-16T15:36:03;1.90;;;0.70;;
12972;SDS011;6551;51.056;9.466;2022-09-16T15:38:31;2.67;;;0.60;;
12972;SDS011;6551;51.056;9.466;2022-09-16T15:41:04;2.30;;;0.53;;
12972;SDS011;6551;51.056;9.466;2022-09-16T15:43:39;1.93;;;0.50;;
12972;SDS011;6551;51.056;9.466;2022-09-16T15:46:16;3.27;;;0.60;;
12972;SDS011;6551;51.056;9.466;2022-09-16T15:48:51;2.83;;;0.70;;
12972;SDS011;6551;51.056;9.466;2022-09-16T15:51:37;3.47;;;0.77;;
12972;SDS011;6551;51.056;9.466;2022-09-16T15:54:16;3.43;;;0.80;;
12972;SDS011;6551;51.056;9.466;2022-09-16T16:02:31;2.37;;;0.53;;
12972;SDS011;6551;51.056;9.466;2022-09-16T16:05:28;2.83;;;0.60;;
12972;SDS011;6551;51.056;9.466;2022-09-16T16:07:56;2.83;;;0.53;;
12972;SDS011;6551;51.056;9.466;2022-09-16T16:10:28;2.20;;;0.40;;
12972;SDS011;6551;51.056;9.466;2022-09-16T16:13:00;2.77;;;0.53;;
12972;SDS011;6551;51.056;9.466;2022-09-16T16:15:29;2.30;;;0.50;;
12972;SDS011;6551;51.056;9.466;2022-09-16T16:17:59;3.83;;;0.53;;
12972;SDS011;6551;51.056;9.466;2022-09-16T16:20:32;2.80;;;0.80;;
12972;SDS011;6551;51.056;9.466;2022-09-16T16:23:00;2.57;;;0.70;;
12972;SDS011;6551;51.056;9.466;2022-09-16T16:25:26;4.13;;;1.20;;
12972;SDS011;6551;51.056;9.466;2022-09-16T16:27:52;3.90;;;0.87;;
12972;SDS011;6551;51.056;9.466;2022-09-16T16:30:17;2.07;;;0.57;;
12972;SDS011;6551;51.056;9.466;2022-09-16T16:32:44;2.83;;;0.90;;
12972;SDS011;6551;51.056;9.466;2022-09-16T16:35:10;4.10;;;0.87;;
12972;SDS011;6551;51.056;9.466;2022-09-16T16:37:36;2.93;;;0.80;;
12972;SDS011;6551;51.056;9.466;2022-09-16T16:40:03;2.40;;;0.70;;
12972;SDS011;6551;51.056;9.466;2022-09-16T16:42:30;3.00;;;0.80;;
12972;SDS011;6551;51.056;9.466;2022-09-16T16:44:56;3.10;;;0.80;;
12972;SDS011;6551;51.056;9.466;2022-09-16T16:47:22;4.67;;;0.83;;
12972;SDS011;6551;51.056;9.466;2022-09-16T16:49:48;3.53;;;0.80;;
12972;SDS011;6551;51.056;9.466;2022-09-16T16:52:14;1.50;;;0.40;;
12972;SDS011;6551;51.056;9.466;2022-09-16T16:54:40;2.03;;;0.93;;
12972;SDS011;6551;51.056;9.466;2022-09-16T16:57:07;5.47;;;0.70;;
12972;SDS011;6551;51.056;9.466;2022-09-16T16:59:33;2.63;;;0.80;;
12972;SDS011;6551;51.056;9.466;2022-09-16T17:01:59;2.60;;;0.90;;
12972;SDS011;6551;51.056;9.466;2022-09-16T17:04:25;3.63;;;0.90;;
12972;SDS011;6551;51.056;9.466;2022-09-16T17:06:51;4.33;;;0.90;;
12972;SDS011;6551;51.056;9.466;2022-09-16T17:09:17;3.13;;;0.90;;
12972;SDS011;6551;51.056;9.466;2022-09-16T17:12:15;2.37;;;0.70;;
12972;SDS011;6551;51.056;9.466;2022-09-16T17:14:34;1.70;;;0.70;;
12972;SDS011;6551;51.056;9.466;2022-09-16T17:17:00;3.10;;;0.70;;
12972;SDS011;6551;51.056;9.466;2022-09-16T17:19:26;5.67;;;1.27;;
12972;SDS011;6551;51.056;9.466;2022-09-16T17:21:53;2.77;;;1.00;;
12972;SDS011;6551;51.056;9.466;2022-09-16T17:24:19;1.83;;;0.80;;
12972;SDS011;6551;51.056;9.466;2022-09-16T17:26:46;3.73;;;1.00;;
12972;SDS011;6551;51.056;9.466;2022-09-16T17:29:13;1.73;;;1.03;;
12972;SDS011;6551;51.056;9.466;2022-09-16T17:31:40;6.77;;;1.20;;
12972;SDS011;6551;51.056;9.466;2022-09-16T17:34:07;3.13;;;1.10;;
12972;SDS011;6551;51.056;9.466;2022-09-16T17:36:39;3.80;;;1.17;;
12972;SDS011;6551;51.056;9.466;2022-09-16T17:39:11;2.70;;;0.90;;
12972;SDS011;6551;51.056;9.466;2022-09-16T17:41:43;3.97;;;1.20;;
12972;SDS011;6551;51.056;9.466;2022-09-16T17:44:11;1.93;;;1.23;;
12972;SDS011;6551;51.056;9.466;2022-09-16T17:46:38;2.90;;;1.00;;
12972;SDS011;6551;51.056;9.466;2022-09-16T17:49:06;4.90;;;1.00;;
12972;SDS011;6551;51.056;9.466;2022-09-16T17:51:37;2.30;;;1.50;;
12972;SDS011;6551;51.056;9.466;2022-09-16T17:54:02;1.70;;;0.93;;
12972;SDS011;6551;51.056;9.466;2022-09-16T17:56:28;1.67;;;1.10;;
12972;SDS011;6551;51.056;9.466;2022-09-16T17:58:54;2.53;;;1.40;;
12972;SDS011;6551;51.056;9.466;2022-09-16T18:01:21;1.97;;;1.50;;
12972;SDS011;6551;51.056;9.466;2022-09-16T18:03:50;3.07;;;1.43;;
12972;SDS011;6551;51.056;9.466;2022-09-16T18:06:26;5.07;;;1.50;;
12972;SDS011;6551;51.056;9.466;2022-09-16T18:08:59;2.03;;;1.53;;
12972;SDS011;6551;51.056;9.466;2022-09-16T18:11:31;2.97;;;1.03;;
12972;SDS011;6551;51.056;9.466;2022-09-16T18:13:59;2.90;;;1.37;;
12972;SDS011;6551;51.056;9.466;2022-09-16T18:16:27;3.97;;;1.20;;
12972;SDS011;6551;51.056;9.466;2022-09-16T18:18:59;1.50;;;1.10;;
12972;SDS011;6551;51.056;9.466;2022-09-16T18:21:28;2.33;;;1.30;;
12972;SDS011;6551;51.056;9.466;2022-09-16T18:23:55;2.53;;;1.40;;
12972;SDS011;6551;51.056;9.466;2022-09-16T18:26:23;4.10;;;3.00;;
12972;SDS011;6551;51.056;9.466;2022-09-16T18:28:50;3.57;;;2.77;;
12972;SDS011;6551;51.056;9.466;2022-09-16T18:31:18;4.90;;;2.13;;